»·PEaware :: PSV800 KSFO-KBOI

PSV800 :: KSFO-KBOI

FLIGHT INFORMATION

Flight Status: Arrived
Operator:
Power Set Virtual (website)
More flights by this operator :: More flights under this callsign
Pilot: Scott L. (17677)
Aircraft: CESSNA 510 CITATION MUSTANG
(C510)
More flights by this aircraft type
Origin: KSFO San Francisco Intl
United States
Destination: KBOI Boise Air Terminal/Gowen
United States
More flights between these airports :: More routes between these airports
Route: TRUKN2 ORRCA FMG PRNCS SADYL3
File this flight plan on PilotEdge
Remarks:
Altitude:
(Current/Filed)
35,000ft
Speed:
(Current/Filed)
350kts
Departed: 02-Apr-20 09:28 AM
Arrived: 02-Apr-20 10:47 AM
Distance/Time
Traveled:
454nm/1:19
Distance/Time
To Go:
Arrived

Flight Plot

Page will automatically refresh every two minutes.


Map Options




Map Legend


Flown Route
Filed Route
Departure Airport
Arrival Airport
Navaid (VOR, NDB)
Fix

Horizontal Profiles

Position Reports

Time Latitude Longitude Heading Altitude Ground
Speed
02-Apr-20 09:07 37.627207 -122.383682 297 15ft 0kts
02-Apr-20 09:08 37.627207 -122.383682 297 15ft 0kts
02-Apr-20 09:09 37.627207 -122.383682 297 15ft 0kts
02-Apr-20 09:10 37.627207 -122.383682 297 15ft 0kts
02-Apr-20 09:11 37.627207 -122.383682 297 15ft 0kts
02-Apr-20 09:12 37.627207 -122.383682 297 15ft 0kts
02-Apr-20 09:13 37.627207 -122.383682 297 15ft 0kts
02-Apr-20 09:15 37.627207 -122.383682 297 15ft 0kts
02-Apr-20 09:16 37.627207 -122.383682 297 15ft 0kts
02-Apr-20 09:17 37.627207 -122.383682 297 15ft 0kts
02-Apr-20 09:18 37.627207 -122.383682 297 15ft 0kts
02-Apr-20 09:19 37.627086 -122.384450 203 15ft 7kts
02-Apr-20 09:20 37.622074 -122.385660 145 15ft 10kts
02-Apr-20 09:21 37.620445 -122.382070 117 15ft 0kts
02-Apr-20 09:22 37.619372 -122.379924 151 15ft 14kts
02-Apr-20 09:23 37.614903 -122.379875 205 15ft 21kts
02-Apr-20 09:24 37.608944 -122.383656 206 15ft 19kts
02-Apr-20 09:25 37.608470 -122.383715 136 15ft 0kts
02-Apr-20 09:26 37.608470 -122.383715 136 15ft 0kts
02-Apr-20 09:27 37.608470 -122.383715 136 15ft 0kts
02-Apr-20 09:28 37.610270 -122.381388 28 16ft 64kts
02-Apr-20 09:29 37.641630 -122.348903 51 2200ft 191kts
02-Apr-20 09:30 37.676826 -122.289592 49 5815ft 230kts
02-Apr-20 09:30 37.708233 -122.232222 52 8767ft 247kts
02-Apr-20 09:32 37.771974 -122.165351 31 12016ft 273kts
02-Apr-20 09:33 37.835311 -122.108043 30 14622ft 286kts
02-Apr-20 09:33 37.889709 -122.058724 30 16789ft 289kts
02-Apr-20 09:35 37.967140 -121.988448 29 19419ft 301kts
02-Apr-20 09:36 38.036281 -121.925412 29 21416ft 309kts
02-Apr-20 09:36 38.094584 -121.872177 28 23064ft 312kts
02-Apr-20 09:37 38.164300 -121.808380 28 25058ft 312kts
02-Apr-20 09:39 38.246302 -121.733155 27 27411ft 310kts
02-Apr-20 09:39 38.304358 -121.679783 26 29047ft 308kts
02-Apr-20 09:40 38.375080 -121.614765 26 30684ft 315kts
02-Apr-20 09:41 38.446087 -121.546766 41 32304ft 331kts
02-Apr-20 09:42 38.502411 -121.452156 44 33959ft 333kts
02-Apr-20 09:43 38.558548 -121.356698 44 35162ft 346kts
02-Apr-20 09:44 38.620154 -121.252072 46 35150ft 386kts
02-Apr-20 09:45 38.686664 -121.137956 46 35138ft 411kts
02-Apr-20 09:46 38.756645 -121.017373 45 35114ft 427kts
02-Apr-20 09:47 38.828535 -120.893430 45 35106ft 437kts
02-Apr-20 09:48 38.901874 -120.766495 45 35103ft 443kts
02-Apr-20 09:49 38.975635 -120.637601 44 35088ft 447kts
02-Apr-20 09:50 39.049612 -120.508358 42 35076ft 447kts
02-Apr-20 09:51 39.122813 -120.380850 42 35096ft 447kts
02-Apr-20 09:52 39.196489 -120.251485 43 35116ft 447kts
02-Apr-20 09:53 39.270246 -120.121309 43 35128ft 447kts
02-Apr-20 09:54 39.343598 -119.991240 43 35130ft 448kts
02-Apr-20 09:55 39.416691 -119.861131 43 35148ft 448kts
02-Apr-20 09:56 39.489822 -119.730422 43 35158ft 448kts
02-Apr-20 09:57 39.575782 -119.628062 11 35173ft 402kts
02-Apr-20 09:58 39.678284 -119.567111 12 35161ft 404kts
02-Apr-20 09:59 39.780732 -119.505178 12 35160ft 405kts
02-Apr-20 10:00 39.882941 -119.443040 12 35160ft 405kts
02-Apr-20 10:01 39.985761 -119.380314 12 35160ft 405kts
02-Apr-20 10:02 40.087518 -119.318002 13 35145ft 404kts
02-Apr-20 10:03 40.190075 -119.255013 13 35154ft 405kts
02-Apr-20 10:04 40.293024 -119.191589 13 35154ft 405kts
02-Apr-20 10:05 40.395374 -119.128281 13 35154ft 405kts
02-Apr-20 10:06 40.497446 -119.064934 13 35154ft 405kts
02-Apr-20 10:07 40.599949 -119.001050 13 35172ft 405kts
02-Apr-20 10:08 40.700450 -118.931899 12 35172ft 405kts
02-Apr-20 10:09 40.803619 -118.868013 12 35173ft 409kts
02-Apr-20 10:10 40.907856 -118.802844 12 35174ft 413kts
02-Apr-20 10:11 41.012059 -118.737786 13 35171ft 414kts
02-Apr-20 10:12 41.114918 -118.673523 15 35171ft 410kts
02-Apr-20 10:13 41.218112 -118.607726 16 35171ft 409kts
02-Apr-20 10:14 41.320656 -118.542386 15 35171ft 408kts
02-Apr-20 10:15 41.423478 -118.476847 15 35171ft 407kts
02-Apr-20 10:16 41.526358 -118.411069 15 35171ft 408kts
02-Apr-20 10:17 41.622424 -118.349470 16 35171ft 408kts
02-Apr-20 10:18 41.724997 -118.283475 16 35152ft 407kts
02-Apr-20 10:19 41.827505 -118.217265 16 35150ft 407kts
02-Apr-20 10:20 41.929914 -118.150909 16 35149ft 407kts
02-Apr-20 10:21 42.032083 -118.084450 16 35150ft 407kts
02-Apr-20 10:22 42.134465 -118.017627 16 35159ft 407kts
02-Apr-20 10:23 42.237026 -117.950446 16 35157ft 408kts
02-Apr-20 10:24 42.339571 -117.883022 16 35158ft 408kts
02-Apr-20 10:25 42.441837 -117.813630 26 34465ft 422kts
02-Apr-20 10:26 42.519838 -117.688700 42 32695ft 435kts
02-Apr-20 10:27 42.596510 -117.561494 42 30707ft 430kts
02-Apr-20 10:28 42.671767 -117.436172 43 28720ft 422kts
02-Apr-20 10:29 42.745433 -117.313001 44 26716ft 414kts
02-Apr-20 10:30 42.816898 -117.192536 45 24691ft 405kts
02-Apr-20 10:31 42.886542 -117.074188 46 21977ft 378kts
02-Apr-20 10:32 42.948617 -116.968500 47 18986ft 350kts
02-Apr-20 10:33 43.007851 -116.867107 48 15980ft 337kts
02-Apr-20 10:34 43.065786 -116.768134 49 12951ft 328kts
02-Apr-20 10:35 43.121216 -116.674014 49 9926ft 296kts
02-Apr-20 10:36 43.170164 -116.590681 49 7546ft 262kts
02-Apr-20 10:37 43.231811 -116.549912 15 6010ft 238kts
02-Apr-20 10:38 43.294851 -116.524633 15 6020ft 241kts
02-Apr-20 10:39 43.360353 -116.498408 15 6018ft 246kts
02-Apr-20 10:40 43.426581 -116.471819 15 6018ft 247kts
02-Apr-20 10:41 43.492944 -116.445160 15 6018ft 247kts
02-Apr-20 10:42 43.547372 -116.398786 33 4805ft 208kts
02-Apr-20 10:43 43.591123 -116.347286 66 4386ft 221kts
02-Apr-20 10:44 43.582915 -116.280392 115 3445ft 138kts
02-Apr-20 10:45 43.569510 -116.241090 116 2873ft 100kts
02-Apr-20 10:46 43.564153 -116.224573 70 2843ft 14kts
02-Apr-20 10:47 43.567924 -116.224677 8 2843ft 10kts
02-Apr-20 10:48 43.568902 -116.224479 8 2843ft 0kts
02-Apr-20 10:49 43.562236 -116.206275 270 2843ft 0kts
02-Apr-20 10:50 43.562236 -116.206275 270 2843ft 0kts
02-Apr-20 10:51 43.562236 -116.206275 270 2843ft 0kts
02-Apr-20 10:52 43.562236 -116.206275 270 2843ft 0kts
02-Apr-20 10:53 43.562236 -116.206275 270 2843ft 0kts
02-Apr-20 10:54 43.562236 -116.206275 270 2843ft 0kts
02-Apr-20 10:55 43.562236 -116.206275 270 2843ft 0kts
02-Apr-20 10:56 43.562236 -116.206275 270 2843ft 0kts
02-Apr-20 10:57 43.562236 -116.206275 270 2843ft 0kts
02-Apr-20 10:58 43.562236 -116.206275 270 2843ft 0kts
02-Apr-20 10:59 43.562236 -116.206275 270 2843ft 0kts
02-Apr-20 11:00 43.562236 -116.206275 270 2843ft 0kts
02-Apr-20 11:01 43.562236 -116.206275 270 2843ft 0kts

Navigation Log

Ident Type
Flight plan parsing failed, navigation log unavailable